Time;durP1;ratioP1;P1;durP2;ratioP2;P2;SDS_P1;SDS_P2;PMS_P1;PMS_P2;Temp;Humidity;BMP_temperature;BMP_pressure;BME280_temperature;BME280_humidity;BME280_pressure;Samples;Min_cycle;Max_cycle;Signal;HPM_P1;HPM_P2
2022/02/07 00:00:39;;;;;;;3.80;0.50;;;8.30;92.80;;;;;;6234815;23;20004;-60
2022/02/07 00:03:13;;;;;;;2.42;0.30;;;8.20;92.80;;;;;;6234213;23;20375;-61
2022/02/07 00:05:39;;;;;;;0.57;0.30;;;8.20;92.90;;;;;;6235641;23;19996;-61
2022/02/07 00:08:07;;;;;;;2.40;0.75;;;8.20;92.90;;;;;;6159803;23;20478;-60
2022/02/07 00:10:32;;;;;;;1.98;0.43;;;8.30;93.00;;;;;;6209000;23;20000;-60
2022/02/07 00:12:59;;;;;;;2.65;0.30;;;8.20;93.00;;;;;;6208271;23;20014;-62
2022/02/07 00:15:25;;;;;;;3.60;0.28;;;8.30;93.30;;;;;;6234616;23;20008;-60
2022/02/07 00:17:50;;;;;;;1.10;0.63;;;8.30;93.10;;;;;;6234276;23;20012;-60
2022/02/07 00:20:18;;;;;;;3.30;0.30;;;8.20;93.20;;;;;;6236555;23;20035;-61
2022/02/07 00:22:44;;;;;;;1.10;0.17;;;8.30;93.30;;;;;;6236287;23;20079;-58
2022/02/07 00:25:10;;;;;;;0.20;0.20;;;8.20;93.40;;;;;;6183139;23;20314;-59
2022/02/07 00:27:36;;;;;;;0.35;0.20;;;8.20;93.40;;;;;;6234503;23;20007;-62
2022/02/07 00:30:03;;;;;;;1.00;0.40;;;8.20;93.60;;;;;;6181722;23;20051;-65
2022/02/07 00:32:28;;;;;;;1.88;0.40;;;8.30;94.00;;;;;;6236136;23;20500;-61
2022/02/07 00:34:54;;;;;;;1.05;0.20;;;8.20;93.60;;;;;;6236185;23;20084;-61
2022/02/07 00:37:19;;;;;;;4.10;0.32;;;8.20;93.70;;;;;;6235838;23;20038;-61
2022/02/07 00:39:54;;;;;;;5.65;0.52;;;8.20;93.90;;;;;;6207190;23;20431;-62
2022/02/07 00:42:26;;;;;;;0.80;0.30;;;8.20;93.90;;;;;;6234361;23;20008;-58
2022/02/07 00:44:51;;;;;;;6.93;0.60;;;8.20;94.00;;;;;;6235222;23;20086;-63
2022/02/07 00:47:17;;;;;;;1.55;0.47;;;8.20;94.10;;;;;;6209885;23;20486;-65
2022/02/07 00:49:43;;;;;;;1.60;0.30;;;8.20;94.10;;;;;;6208740;23;20326;-64
2022/02/07 00:52:08;;;;;;;0.77;0.35;;;8.20;94.20;;;;;;6235201;23;20438;-60
2022/02/07 00:54:34;;;;;;;0.20;0.20;;;8.20;94.30;;;;;;6207530;23;20297;-63
2022/02/07 00:57:00;;;;;;;2.58;0.40;;;8.20;94.30;;;;;;6233971;23;20386;-60
2022/02/07 00:59:25;;;;;;;0.40;0.30;;;8.20;94.40;;;;;;6235980;23;20008;-62
2022/02/07 01:01:50;;;;;;;0.45;0.30;;;8.20;94.40;;;;;;6209313;23;20000;-58
2022/02/07 01:04:16;;;;;;;0.65;0.30;;;8.20;94.50;;;;;;6183171;23;20001;-60
2022/02/07 01:06:42;;;;;;;0.52;0.20;;;8.20;94.60;;;;;;6234269;23;20000;-63
2022/02/07 01:18:32;;;;;;;2.00;0.40;;;8.20;94.90;;;;;;6211007;23;20012;-61
2022/02/07 01:54:48;;;;;;;0.50;0.15;;;8.20;95.90;;;;;;6236602;23;20020;-60
2022/02/07 01:57:13;;;;;;;0.77;0.38;;;8.20;95.90;;;;;;6184775;23;20107;-58
2022/02/07 01:59:39;;;;;;;0.25;0.20;;;8.20;96.00;;;;;;6206954;23;20442;-60
2022/02/07 02:02:05;;;;;;;5.32;0.28;;;8.10;96.00;;;;;;6233489;23;20187;-60
2022/02/07 02:04:31;;;;;;;0.20;0.20;;;8.20;96.00;;;;;;6184639;23;20376;-59
2022/02/07 02:06:56;;;;;;;0.75;0.20;;;8.20;96.10;;;;;;6208495;23;20059;-59
2022/02/07 02:09:22;;;;;;;0.20;0.20;;;8.10;96.00;;;;;;6207730;23;20337;-64
2022/02/07 02:11:48;;;;;;;0.82;0.20;;;8.10;96.10;;;;;;6158967;23;20329;-62
2022/02/07 02:17:54;;;;;;;1.20;0.20;;;8.10;96.00;;;;;;6210397;23;20004;-61
2022/02/07 02:38:28;;;;;;;1.98;0.20;;;8.10;95.90;;;;;;6236184;23;20012;-61
2022/02/07 02:46:25;;;;;;;0.95;0.20;;;8.10;95.70;;;;;;6237723;23;20011;-64
2022/02/07 02:48:59;;;;;;;1.10;0.30;;;8.10;95.70;;;;;;6236291;23;20004;-60
2022/02/07 02:51:25;;;;;;;0.65;0.28;;;8.10;95.70;;;;;;6235860;23;20244;-63
2022/02/07 02:53:50;;;;;;;1.02;0.30;;;8.10;95.60;;;;;;6235672;23;20661;-59
2022/02/07 02:56:16;;;;;;;2.33;0.30;;;7.90;95.60;;;;;;6236841;23;20020;-62
2022/02/07 02:58:41;;;;;;;0.47;0.22;;;8.10;95.60;;;;;;6237572;23;20240;-62
2022/02/07 03:01:07;;;;;;;1.75;0.43;;;8.10;95.60;;;;;;6209905;23;20330;-63
2022/02/07 03:03:32;;;;;;;0.60;0.30;;;8.10;95.60;;;;;;6235293;23;20422;-62
2022/02/07 03:05:58;;;;;;;2.25;0.50;;;8.10;95.60;;;;;;6208643;23;20339;-60
2022/02/07 03:08:23;;;;;;;1.45;0.47;;;8.10;95.60;;;;;;6236258;23;20023;-60
2022/02/07 03:18:33;;;;;;;0.45;0.30;;;8.10;95.60;;;;;;6234920;23;20083;-59
2022/02/07 03:20:59;;;;;;;1.10;0.32;;;8.10;95.60;;;;;;6209098;23;20106;-62
2022/02/07 03:23:24;;;;;;;0.45;0.22;;;8.10;95.60;;;;;;6209733;23;20036;-63
2022/02/07 03:25:50;;;;;;;0.88;0.38;;;8.10;95.60;;;;;;6210417;23;20004;-62
2022/02/07 03:28:17;;;;;;;1.17;0.20;;;8.10;95.50;;;;;;6235679;23;20398;-60
2022/02/07 03:30:42;;;;;;;0.30;0.30;;;8.10;95.60;;;;;;6208297;23;20004;-61
2022/02/07 03:33:08;;;;;;;0.55;0.28;;;8.00;95.50;;;;;;6235037;23;20500;-63
2022/02/07 03:35:34;;;;;;;0.77;0.47;;;8.00;95.50;;;;;;6185102;23;20409;-61
2022/02/07 03:37:59;;;;;;;1.10;0.40;;;8.00;95.40;;;;;;6210036;23;20068;-58
2022/02/07 03:40:25;;;;;;;0.35;0.22;;;8.00;95.30;;;;;;6209330;23;20456;-61
2022/02/07 03:42:50;;;;;;;0.40;0.20;;;8.00;95.20;;;;;;6234972;23;20012;-62
2022/02/07 03:45:16;;;;;;;2.22;0.30;;;8.00;95.20;;;;;;6208171;23;20005;-59
2022/02/07 03:47:42;;;;;;;0.43;0.28;;;8.00;95.10;;;;;;6209156;23;20053;-63
2022/02/07 03:50:08;;;;;;;0.80;0.20;;;8.00;95.10;;;;;;6210059;23;20008;-62
2022/02/07 03:52:34;;;;;;;0.25;0.25;;;8.00;95.00;;;;;;6236527;23;20000;-59
2022/02/07 03:54:59;;;;;;;0.57;0.22;;;8.00;95.20;;;;;;6208626;23;20016;-63
2022/02/07 03:57:25;;;;;;;0.20;0.20;;;8.00;94.90;;;;;;6207603;23;20031;-60
2022/02/07 03:59:50;;;;;;;2.10;0.40;;;7.90;94.80;;;;;;6235101;23;20370;-63
2022/02/07 04:02:16;;;;;;;0.20;0.20;;;8.00;94.80;;;;;;6236715;23;20472;-61
2022/02/07 04:04:44;;;;;;;0.93;0.40;;;8.00;94.70;;;;;;6210139;23;20000;-58
2022/02/07 04:07:12;;;;;;;0.55;0.28;;;7.90;94.60;;;;;;6208788;23;20090;-62
2022/02/07 04:09:43;;;;;;;0.20;0.20;;;7.90;94.50;;;;;;6208333;23;20103;-63
2022/02/07 04:12:17;;;;;;;0.73;0.40;;;7.90;94.50;;;;;;6234599;23;20004;-60
2022/02/07 04:14:43;;;;;;;0.70;0.30;;;7.90;94.30;;;;;;6186766;23;20056;-61
2022/02/07 04:17:11;;;;;;;0.40;0.40;;;7.90;94.30;;;;;;6210574;23;20004;-62
2022/02/07 04:19:37;;;;;;;0.73;0.40;;;7.90;94.20;;;;;;6209405;23;20027;-62
2022/02/07 04:22:05;;;;;;;0.43;0.28;;;7.80;94.10;;;;;;6207541;23;20406;-58
2022/02/07 04:24:31;;;;;;;0.30;0.20;;;7.80;94.00;;;;;;6183370;23;20059;-61
2022/02/07 04:26:56;;;;;;;0.38;0.30;;;7.80;94.00;;;;;;6235922;23;20117;-60
2022/02/07 04:29:22;;;;;;;0.40;0.30;;;7.80;93.90;;;;;;6236482;23;20027;-58
2022/02/07 04:31:48;;;;;;;0.75;0.32;;;7.80;93.90;;;;;;6209052;23;20014;-61
2022/02/07 04:34:13;;;;;;;0.47;0.30;;;7.80;93.90;;;;;;6234816;23;20008;-58
2022/02/07 04:36:44;;;;;;;2.13;0.40;;;7.70;93.80;;;;;;6234481;23;20418;-60
2022/02/07 04:39:09;;;;;;;1.17;0.50;;;7.70;93.80;;;;;;6207503;23;20008;-62
2022/02/07 04:41:35;;;;;;;1.42;0.60;;;7.70;93.70;;;;;;6210577;23;20054;-59
2022/02/07 04:44:06;;;;;;;1.13;0.40;;;7.70;93.70;;;;;;6209516;23;20007;-61
2022/02/07 04:46:45;;;;;;;4.75;0.50;;;7.70;93.60;;;;;;6209373;23;20008;-62
2022/02/07 04:59:24;;;;;;;4.80;0.57;;;7.70;93.50;;;;;;6211803;23;20030;-58
2022/02/07 05:02:01;;;;;;;3.10;0.68;;;7.70;93.40;;;;;;6234190;23;20457;-60
2022/02/07 05:04:35;;;;;;;1.35;0.38;;;7.70;93.40;;;;;;6207771;23;20004;-59
2022/02/07 05:15:12;;;;;;;1.35;0.50;;;7.60;93.10;;;;;;6211141;23;20552;-59
2022/02/07 05:17:39;;;;;;;0.60;0.50;;;7.60;93.10;;;;;;6233617;23;20038;-60
2022/02/07 05:20:06;;;;;;;1.27;0.52;;;7.60;93.10;;;;;;6235822;23;20034;-60
2022/02/07 05:22:32;;;;;;;2.95;0.55;;;7.60;93.10;;;;;;6235980;23;20825;-59
2022/02/07 05:24:58;;;;;;;3.17;0.75;;;7.60;93.10;;;;;;6207596;23;20378;-62
2022/02/07 05:27:23;;;;;;;3.17;0.77;;;7.60;93.10;;;;;;6207280;23;20000;-58
2022/02/07 05:29:49;;;;;;;4.13;0.73;;;7.60;93.00;;;;;;6233471;23;20093;-63
2022/02/07 05:32:16;;;;;;;2.97;0.65;;;7.60;93.00;;;;;;6183064;23;20023;-60
2022/02/07 05:34:41;;;;;;;2.60;0.70;;;7.60;92.90;;;;;;6236263;23;20047;-61
2022/02/07 05:37:10;;;;;;;2.45;0.60;;;7.50;92.90;;;;;;6235083;23;20004;-62
2022/02/07 05:39:36;;;;;;;2.38;0.68;;;7.50;92.80;;;;;;6233581;23;20031;-58
2022/02/07 05:42:05;;;;;;;2.72;0.82;;;7.50;92.80;;;;;;6233472;23;20114;-62
2022/02/07 05:44:31;;;;;;;3.75;0.85;;;7.50;92.80;;;;;;6208229;23;20032;-62
2022/02/07 05:46:56;;;;;;;4.57;0.90;;;7.50;92.60;;;;;;6211314;23;20508;-62
2022/02/07 05:49:24;;;;;;;1.75;0.63;;;7.50;92.50;;;;;;6211985;23;20397;-62
2022/02/07 05:51:50;;;;;;;2.10;0.70;;;7.50;92.50;;;;;;6237962;23;20149;-62
2022/02/07 05:54:15;;;;;;;2.88;1.10;;;7.40;92.20;;;;;;6211011;23;20054;-61
2022/02/07 05:56:41;;;;;;;4.45;0.80;;;7.40;92.10;;;;;;6236565;23;20055;-60
2022/02/07 05:59:06;;;;;;;0.75;0.40;;;7.40;92.00;;;;;;6211824;23;20186;-59
2022/02/07 06:01:32;;;;;;;4.43;0.57;;;7.40;91.90;;;;;;6239214;23;20449;-62
2022/02/07 06:03:57;;;;;;;2.13;0.55;;;7.40;91.80;;;;;;6211235;23;20084;-61
2022/02/07 06:06:23;;;;;;;3.38;0.57;;;7.30;91.80;;;;;;6210430;23;20418;-61
2022/02/07 06:08:48;;;;;;;3.50;0.80;;;7.30;91.80;;;;;;6209709;23;20069;-62
2022/02/07 06:11:14;;;;;;;1.33;0.68;;;7.30;91.70;;;;;;6211231;23;20008;-62
2022/02/07 06:13:39;;;;;;;6.10;0.98;;;7.20;91.70;;;;;;6239975;23;20000;-62
2022/02/07 06:16:05;;;;;;;4.80;0.98;;;7.30;91.50;;;;;;6211705;23;20381;-61
2022/02/07 06:18:31;;;;;;;1.95;0.80;;;7.20;91.40;;;;;;6208903;23;20637;-60
2022/02/07 06:21:02;;;;;;;2.33;0.93;;;7.20;91.40;;;;;;6236427;23;20004;-61
2022/02/07 06:23:28;;;;;;;4.50;0.80;;;7.20;91.30;;;;;;6237270;23;20063;-60
2022/02/07 06:25:55;;;;;;;2.50;0.75;;;7.20;91.30;;;;;;6239449;23;20085;-61
2022/02/07 06:28:21;;;;;;;2.15;0.98;;;7.20;91.30;;;;;;6239230;23;19993;-58
2022/02/07 06:30:46;;;;;;;4.18;1.05;;;7.10;91.10;;;;;;6237223;23;20007;-60
2022/02/07 06:33:12;;;;;;;3.28;1.15;;;7.10;90.90;;;;;;6236981;23;20014;-58
2022/02/07 06:35:37;;;;;;;5.95;1.05;;;7.10;91.00;;;;;;6207822;23;20039;-59
2022/02/07 06:38:03;;;;;;;2.92;1.10;;;7.10;90.90;;;;;;6237049;23;20415;-61
2022/02/07 06:40:28;;;;;;;4.13;0.77;;;7.10;90.80;;;;;;6238541;23;20004;-61
2022/02/07 06:42:54;;;;;;;5.13;0.98;;;7.10;90.70;;;;;;6237004;23;20000;-60
2022/02/07 06:45:19;;;;;;;2.90;1.00;;;7.10;90.70;;;;;;6210103;23;20035;-61
2022/02/07 06:47:45;;;;;;;3.88;1.45;;;7.00;90.70;;;;;;6236840;23;20008;-62
2022/02/07 06:50:10;;;;;;;3.45;1.00;;;7.10;90.60;;;;;;6236029;23;20457;-59
2022/02/07 06:52:36;;;;;;;6.35;1.00;;;7.00;90.50;;;;;;6209586;23;20081;-59
2022/02/07 06:55:01;;;;;;;2.92;0.65;;;7.00;90.60;;;;;;6211485;23;20424;-62
2022/02/07 06:57:27;;;;;;;4.82;0.90;;;7.00;90.50;;;;;;6232925;23;20382;-60
2022/02/07 06:59:52;;;;;;;2.92;1.02;;;7.00;90.50;;;;;;6234649;23;20077;-60
2022/02/07 07:02:20;;;;;;;2.10;1.00;;;7.00;90.50;;;;;;6208158;23;20398;-60
2022/02/07 07:04:48;;;;;;;3.47;1.00;;;7.00;90.40;;;;;;6235810;23;20324;-60
2022/02/07 07:07:14;;;;;;;5.13;1.23;;;7.00;90.30;;;;;;6236864;23;20007;-62
2022/02/07 07:09:43;;;;;;;6.97;1.17;;;7.00;90.30;;;;;;6208477;23;20000;-62
2022/02/07 07:12:10;;;;;;;7.57;1.30;;;7.00;90.30;;;;;;6235212;23;20102;-60
2022/02/07 07:14:43;;;;;;;1.92;0.98;;;7.00;90.20;;;;;;6232521;23;20012;-61
2022/02/07 07:17:08;;;;;;;4.20;1.45;;;7.00;90.20;;;;;;6206664;23;20003;-61
2022/02/07 07:19:34;;;;;;;3.10;1.23;;;7.00;90.10;;;;;;6234656;23;20016;-61
2022/02/07 07:22:00;;;;;;;6.95;1.13;;;7.00;90.10;;;;;;6233751;23;20006;-60
2022/02/07 07:24:26;;;;;;;4.57;1.40;;;7.00;90.10;;;;;;6233890;23;20335;-57
2022/02/07 07:26:51;;;;;;;3.65;1.15;;;7.00;90.00;;;;;;6233822;23;20012;-59
2022/02/07 07:29:22;;;;;;;3.22;1.27;;;7.00;90.00;;;;;;6206978;23;20382;-60
2022/02/07 07:31:55;;;;;;;3.35;1.13;;;6.90;90.00;;;;;;6183466;23;20354;-62
2022/02/07 07:34:22;;;;;;;2.90;1.30;;;7.00;89.90;;;;;;6234402;23;20358;-59
2022/02/07 07:36:47;;;;;;;5.70;1.40;;;6.90;89.90;;;;;;6233684;23;20007;-61
2022/02/07 07:39:13;;;;;;;5.20;1.40;;;6.90;89.90;;;;;;6205548;23;20306;-60
2022/02/07 07:41:43;;;;;;;8.10;1.45;;;6.90;89.70;;;;;;6207152;23;20075;-59
2022/02/07 07:44:09;;;;;;;8.27;1.52;;;6.90;89.90;;;;;;6206987;23;20008;-60
2022/02/07 07:46:34;;;;;;;5.13;1.65;;;6.90;89.90;;;;;;6233253;23;20004;-59
2022/02/07 07:49:09;;;;;;;5.38;1.60;;;7.00;89.90;;;;;;6235072;23;20103;-61
2022/02/07 07:51:49;;;;;;;19.70;2.13;;;6.90;89.60;;;;;;6186478;23;20004;-62
2022/02/07 08:02:29;;;;;;;33.17;4.13;;;6.90;89.50;;;;;;6211543;23;20250;-57
2022/02/07 08:04:57;;;;;;;27.92;5.03;;;6.90;89.40;;;;;;6207303;23;19996;-65
2022/02/07 08:07:34;;;;;;;26.42;4.00;;;6.90;89.20;;;;;;6232207;23;20406;-59
2022/02/07 08:10:08;;;;;;;25.40;3.53;;;6.80;89.20;;;;;;6233075;23;20046;-61
2022/02/07 08:12:36;;;;;;;24.92;3.53;;;6.80;89.10;;;;;;6183537;23;20112;-62
2022/02/07 08:15:02;;;;;;;27.27;3.80;;;6.80;89.00;;;;;;6182733;23;20016;-61
2022/02/07 08:17:28;;;;;;;24.25;3.72;;;6.80;88.90;;;;;;6234068;23;20080;-61
2022/02/07 08:19:54;;;;;;;29.67;3.95;;;6.80;88.60;;;;;;6179801;23;20042;-60
2022/02/07 08:22:19;;;;;;;24.38;3.67;;;6.80;88.60;;;;;;6205780;23;20633;-59
2022/02/07 08:24:46;;;;;;;14.52;3.17;;;6.80;88.60;;;;;;6206133;23;20031;-61
2022/02/07 08:27:11;;;;;;;24.60;4.32;;;6.80;88.40;;;;;;6206678;23;20019;-60
2022/02/07 08:29:37;;;;;;;15.80;2.75;;;6.80;88.50;;;;;;6232218;23;20004;-59
2022/02/07 08:32:03;;;;;;;12.57;3.20;;;6.80;88.50;;;;;;6206376;23;20004;-61
2022/02/07 08:34:29;;;;;;;24.60;3.63;;;6.80;88.30;;;;;;6233300;23;19996;-58
2022/02/07 08:36:55;;;;;;;18.27;2.88;;;6.80;88.30;;;;;;6232146;23;20019;-59
2022/02/07 08:39:21;;;;;;;18.02;3.10;;;6.80;88.10;;;;;;6208326;23;20008;-61
2022/02/07 08:41:46;;;;;;;15.77;3.28;;;6.80;88.00;;;;;;6204974;23;20000;-62
2022/02/07 08:44:12;;;;;;;20.88;3.05;;;6.80;88.00;;;;;;6231377;23;20125;-59
2022/02/07 08:46:37;;;;;;;11.85;3.15;;;6.80;88.00;;;;;;6230721;23;20436;-59
2022/02/07 08:49:03;;;;;;;10.07;2.83;;;6.80;87.90;;;;;;6232694;23;20253;-62
2022/02/07 08:51:31;;;;;;;16.33;3.45;;;6.80;87.90;;;;;;6155653;23;20512;-62
2022/02/07 08:54:00;;;;;;;16.60;3.33;;;6.80;87.70;;;;;;6231204;23;20015;-60
2022/02/07 08:56:38;;;;;;;16.45;3.03;;;6.80;87.60;;;;;;6232867;23;20012;-60
2022/02/07 08:59:04;;;;;;;20.15;3.38;;;6.80;87.50;;;;;;6232032;23;20069;-62
2022/02/07 09:01:41;;;;;;;25.67;3.58;;;6.80;87.60;;;;;;6230616;23;20386;-61
2022/02/07 09:11:33;;;;;;;16.25;2.88;;;6.80;87.40;;;;;;6230532;23;20008;-59
2022/02/07 09:14:01;;;;;;;27.13;4.15;;;6.80;87.40;;;;;;6205289;23;20026;-59
2022/02/07 09:16:29;;;;;;;20.83;3.47;;;6.60;87.20;;;;;;6234156;23;20095;-61
2022/02/07 09:18:59;;;;;;;19.75;3.08;;;6.80;87.30;;;;;;6207700;23;20050;-62
2022/02/07 09:21:25;;;;;;;14.88;2.58;;;6.80;87.20;;;;;;6231210;23;20007;-60
2022/02/07 09:23:50;;;;;;;23.60;2.88;;;6.80;87.00;;;;;;6205020;23;20062;-61
2022/02/07 09:26:16;;;;;;;19.98;2.88;;;6.80;86.70;;;;;;6203966;23;20004;-62
2022/02/07 09:28:42;;;;;;;20.15;3.22;;;6.80;86.60;;;;;;6204386;23;20008;-62
2022/02/07 09:31:08;;;;;;;17.15;2.88;;;6.80;86.60;;;;;;6235741;23;20000;-61
2022/02/07 09:33:34;;;;;;;23.10;3.08;;;6.80;86.40;;;;;;6230526;23;20000;-61
2022/02/07 09:36:00;;;;;;;18.83;3.45;;;6.90;86.30;;;;;;6232797;23;20011;-60
2022/02/07 09:38:26;;;;;;;30.40;3.80;;;6.80;86.10;;;;;;6204835;23;20004;-60
2022/02/07 09:40:56;;;;;;;17.52;3.53;;;6.90;86.00;;;;;;6181565;23;20008;-60
2022/02/07 09:43:26;;;;;;;20.42;3.85;;;6.90;85.90;;;;;;6233622;23;20028;-58
2022/02/07 09:45:52;;;;;;;16.58;3.50;;;6.90;86.20;;;;;;6181433;23;20079;-62
2022/02/07 09:48:19;;;;;;;30.65;4.50;;;6.90;86.20;;;;;;6204534;23;20838;-60
2022/02/07 09:50:44;;;;;;;31.73;4.40;;;6.90;86.10;;;;;;6205158;23;20820;-60
2022/02/07 09:53:10;;;;;;;24.85;4.28;;;7.00;86.10;;;;;;6228619;23;20000;-58
2022/02/07 09:55:36;;;;;;;29.80;3.92;;;7.00;85.90;;;;;;6202806;23;20020;-60
2022/02/07 09:58:02;;;;;;;22.60;4.32;;;6.90;85.60;;;;;;6234304;23;20341;-59
2022/02/07 10:00:35;;;;;;;28.52;3.97;;;7.00;85.30;;;;;;6206767;23;20087;-63
2022/02/07 10:03:19;;;;;;;31.98;4.53;;;6.90;85.20;;;;;;6207686;23;20030;-61
2022/02/07 10:05:53;;;;;;;40.28;4.88;;;7.00;84.80;;;;;;6209688;23;20103;-58
2022/02/07 10:18:59;;;;;;;26.25;4.25;;;7.10;84.20;;;;;;6181603;23;20019;-63
2022/02/07 10:38:00;;;;;;;63.58;6.43;;;7.20;82.50;;;;;;6183632;23;20095;-62
2022/02/07 10:40:35;;;;;;;121.90;11.13;;;7.20;82.40;;;;;;6211190;23;20084;-59
2022/02/07 10:43:10;;;;;;;58.00;6.53;;;7.20;82.40;;;;;;6185712;23;20096;-63
2022/02/07 10:48:31;;;;;;;47.92;6.75;;;7.30;82.40;;;;;;6213424;23;20012;-63
2022/02/07 10:51:11;;;;;;;74.65;8.13;;;7.30;82.40;;;;;;6207539;23;20000;-62
2022/02/07 10:53:39;;;;;;;65.05;7.22;;;7.30;82.40;;;;;;6232337;23;20547;-60
2022/02/07 10:56:04;;;;;;;96.45;10.50;;;7.40;82.40;;;;;;6233816;23;20418;-59
2022/02/07 10:58:30;;;;;;;54.38;9.38;;;7.40;82.30;;;;;;6183226;23;20000;-59
2022/02/07 11:01:04;;;;;;;68.35;8.75;;;7.40;82.30;;;;;;6182745;23;20008;-60
2022/02/07 11:03:36;;;;;;;84.68;10.10;;;7.50;82.10;;;;;;6208193;23;20481;-60
2022/02/07 11:06:04;;;;;;;92.40;9.63;;;7.50;82.10;;;;;;6234114;23;20434;-60
2022/02/07 11:08:49;;;;;;;52.03;7.18;;;7.50;82.00;;;;;;6182983;23;20066;-61
2022/02/07 11:14:08;;;;;;;60.05;7.72;;;7.50;82.00;;;;;;6209789;23;20334;-59
2022/02/07 11:19:35;;;;;;;74.68;8.55;;;7.70;82.00;;;;;;6210280;23;20008;-59
2022/02/07 11:25:43;;;;;;;59.13;8.38;;;7.60;81.60;;;;;;6186200;23;20000;-58
2022/02/07 11:28:20;;;;;;;72.43;8.27;;;7.70;81.60;;;;;;6197467;23;20011;-59
2022/02/07 11:30:59;;;;;;;71.05;9.07;;;7.70;81.60;;;;;;6168718;23;20062;-62
2022/02/07 11:36:36;;;;;;;65.60;8.60;;;7.70;81.20;;;;;;6210375;23;20008;-59
2022/02/07 11:39:11;;;;;;;59.80;9.18;;;7.50;81.10;;;;;;6163422;23;20411;-61
2022/02/07 11:41:55;;;;;;;71.80;9.45;;;7.80;81.90;;;;;;6195006;23;20031;-61
2022/02/07 11:44:25;;;;;;;75.47;10.75;;;7.80;81.50;;;;;;6219784;23;20007;-60
2022/02/07 11:47:24;;;;;;;59.47;8.45;;;7.80;81.20;;;;;;6218118;23;20026;-60
2022/02/07 11:49:51;;;;;;;43.50;7.10;;;7.90;81.20;;;;;;6220960;23;20747;-59
2022/02/07 11:52:28;;;;;;;50.05;7.25;;;7.80;80.60;;;;;;6168356;23;20008;-57
2022/02/07 11:54:55;;;;;;;81.38;11.43;;;7.80;80.20;;;;;;6220787;23;20671;-60
2022/02/07 11:57:22;;;;;;;78.85;8.90;;;7.90;80.60;;;;;;6207138;23;20636;-62
2022/02/07 11:59:57;;;;;;;62.03;8.57;;;7.90;80.40;;;;;;6204892;23;20007;-61
2022/02/07 12:02:22;;;;;;;65.75;9.68;;;7.90;80.10;;;;;;6206735;23;20004;-61
2022/02/07 12:04:48;;;;;;;102.07;11.40;;;8.00;79.90;;;;;;6182226;23;20022;-61
2022/02/07 12:07:21;;;;;;;77.80;10.13;;;8.00;79.90;;;;;;6206176;23;20341;-58
2022/02/07 12:12:41;;;;;;;70.53;8.45;;;8.00;79.80;;;;;;6232924;23;20052;-63
2022/02/07 12:15:35;;;;;;;326.73;26.98;;;8.00;79.80;;;;;;6228302;23;20007;-60
2022/02/07 12:18:17;;;;;;;114.60;13.27;;;8.10;80.00;;;;;;6211991;23;20004;-61
2022/02/07 12:20:45;;;;;;;83.55;10.95;;;8.10;80.00;;;;;;6204686;23;20008;-61
2022/02/07 12:23:27;;;;;;;64.75;7.88;;;8.30;80.00;;;;;;6232028;23;20008;-58
2022/02/07 12:26:00;;;;;;;68.93;6.93;;;8.10;79.10;;;;;;6204093;23;20023;-61
2022/02/07 12:31:21;;;;;;;66.72;8.65;;;8.20;78.80;;;;;;6207186;23;20008;-61
2022/02/07 12:33:56;;;;;;;65.53;9.27;;;8.20;79.20;;;;;;6207330;23;20351;-59
2022/02/07 12:36:23;;;;;;;89.90;9.27;;;8.20;78.90;;;;;;6233318;23;20012;-63
2022/02/07 12:38:49;;;;;;;75.47;8.55;;;8.20;78.80;;;;;;6204801;23;20422;-58
2022/02/07 12:41:15;;;;;;;91.00;9.07;;;8.20;78.70;;;;;;6232725;23;20019;-62
2022/02/07 12:43:46;;;;;;;81.32;9.18;;;8.20;78.40;;;;;;6206114;23;20568;-60
2022/02/07 12:46:14;;;;;;;55.97;7.97;;;8.20;78.60;;;;;;6233272;23;20008;-62
2022/02/07 12:48:49;;;;;;;49.95;7.35;;;8.20;77.70;;;;;;6207203;23;20003;-60
2022/02/07 12:51:15;;;;;;;131.00;10.95;;;8.20;77.30;;;;;;6208308;23;20020;-60
2022/02/07 12:53:41;;;;;;;108.53;11.35;;;8.20;77.30;;;;;;6205917;23;20496;-62
2022/02/07 12:56:07;;;;;;;65.70;7.35;;;8.20;77.70;;;;;;6180226;23;20343;-62
2022/02/07 12:58:34;;;;;;;71.75;7.97;;;8.20;77.40;;;;;;6205840;23;20031;-60
2022/02/07 13:01:15;;;;;;;55.67;6.53;;;8.20;77.00;;;;;;6233815;23;20073;-62
2022/02/07 13:03:50;;;;;;;45.40;6.18;;;8.20;76.80;;;;;;6206245;23;20000;-59
2022/02/07 13:06:16;;;;;;;50.45;6.50;;;8.30;76.80;;;;;;6206437;23;20004;-61
2022/02/07 13:08:44;;;;;;;45.65;7.07;;;8.30;76.70;;;;;;6231404;23;20105;-62
2022/02/07 13:11:22;;;;;;;44.45;6.57;;;8.30;76.60;;;;;;6231013;23;20004;-63
2022/02/07 13:13:48;;;;;;;49.38;5.30;;;8.30;76.50;;;;;;6184803;23;20337;-59
2022/02/07 13:16:15;;;;;;;54.15;6.47;;;8.30;76.70;;;;;;6180988;23;20598;-60
2022/02/07 13:18:41;;;;;;;48.63;6.05;;;8.30;76.70;;;;;;6230547;23;20007;-59
2022/02/07 13:21:12;;;;;;;106.95;11.50;;;8.30;76.90;;;;;;6206295;23;20000;-60
2022/02/07 13:23:39;;;;;;;53.13;7.20;;;8.30;76.90;;;;;;6207230;23;20004;-61
2022/02/07 13:26:07;;;;;;;63.33;8.60;;;8.30;76.40;;;;;;6234219;23;20000;-61
2022/02/07 13:28:33;;;;;;;35.35;5.25;;;8.30;76.40;;;;;;6232014;23;20329;-63
2022/02/07 13:31:00;;;;;;;49.92;6.30;;;8.30;76.20;;;;;;6232307;23;20477;-61
2022/02/07 13:33:25;;;;;;;43.88;6.57;;;8.30;76.10;;;;;;6178230;23;20183;-59
2022/02/07 13:35:55;;;;;;;66.47;6.75;;;8.40;76.40;;;;;;6204150;23;20466;-62
2022/02/07 13:38:20;;;;;;;67.90;8.13;;;8.40;76.60;;;;;;6181453;23;20307;-61
2022/02/07 13:40:51;;;;;;;45.92;7.90;;;8.40;76.80;;;;;;6204553;23;20012;-62
2022/02/07 13:43:24;;;;;;;57.70;7.22;;;8.40;76.90;;;;;;6179013;23;20309;-62
2022/02/07 13:45:52;;;;;;;43.30;5.72;;;8.40;77.10;;;;;;6231576;23;20009;-62
2022/02/07 13:48:18;;;;;;;63.30;7.25;;;8.50;77.00;;;;;;6230971;23;20066;-63
2022/02/07 13:50:46;;;;;;;61.80;8.90;;;8.50;76.90;;;;;;6233459;23;20000;-61
2022/02/07 13:53:13;;;;;;;60.78;8.52;;;8.50;77.20;;;;;;6182440;23;20008;-63
2022/02/07 13:55:42;;;;;;;57.67;7.95;;;8.50;77.00;;;;;;6206819;23;20027;-63
2022/02/07 13:58:29;;;;;;;47.20;6.80;;;8.60;77.00;;;;;;6180839;23;20126;-62
2022/02/07 14:00:56;;;;;;;87.68;10.00;;;8.60;77.00;;;;;;6228675;23;20657;-60
2022/02/07 14:03:37;;;;;;;66.40;8.98;;;8.60;76.80;;;;;;6230930;23;20080;-62
2022/02/07 14:06:08;;;;;;;74.10;10.38;;;8.60;77.00;;;;;;6232318;23;20004;-63
2022/02/07 14:08:39;;;;;;;66.28;8.27;;;8.60;76.90;;;;;;6233673;23;20008;-63
2022/02/07 14:11:09;;;;;;;68.90;7.20;;;8.60;76.70;;;;;;6230797;23;19996;-62
2022/02/07 14:13:36;;;;;;;51.17;8.10;;;8.60;76.90;;;;;;6207467;23;20004;-60
2022/02/07 14:16:06;;;;;;;50.60;6.13;;;8.60;76.80;;;;;;6181431;23;20054;-60
2022/02/07 14:18:32;;;;;;;82.32;10.23;;;8.70;76.70;;;;;;6184823;23;20524;-62
2022/02/07 14:21:01;;;;;;;73.10;8.45;;;8.60;77.10;;;;;;6158908;23;20305;-59
2022/02/07 14:23:28;;;;;;;81.93;11.52;;;8.60;77.00;;;;;;6208358;23;20032;-62
2022/02/07 14:25:59;;;;;;;74.07;9.30;;;8.60;76.90;;;;;;6232333;23;20004;-61
2022/02/07 14:28:25;;;;;;;74.43;8.65;;;8.60;76.90;;;;;;6184826;23;20004;-61
2022/02/07 14:30:51;;;;;;;75.43;9.73;;;8.70;76.70;;;;;;6208022;23;20172;-60
2022/02/07 14:33:16;;;;;;;46.97;7.43;;;8.60;76.10;;;;;;6155049;23;20338;-61
2022/02/07 14:35:42;;;;;;;86.05;7.80;;;8.60;76.30;;;;;;6206446;23;20442;-60
2022/02/07 14:38:07;;;;;;;55.83;7.82;;;8.60;76.90;;;;;;6233638;23;20030;-59
2022/02/07 14:40:34;;;;;;;134.13;13.20;;;8.60;76.90;;;;;;6233727;23;20457;-62
2022/02/07 14:43:03;;;;;;;102.70;12.13;;;8.60;76.80;;;;;;6182540;23;20103;-62
2022/02/07 14:45:36;;;;;;;95.18;9.10;;;8.60;76.90;;;;;;6208059;23;20004;-62
2022/02/07 14:48:03;;;;;;;75.07;8.20;;;8.70;76.90;;;;;;6233934;23;20015;-60
2022/02/07 14:50:29;;;;;;;84.65;10.10;;;8.70;76.50;;;;;;6207009;23;20083;-59
2022/02/07 14:52:54;;;;;;;68.97;8.75;;;8.60;76.70;;;;;;6180666;23;20492;-64
2022/02/07 14:55:20;;;;;;;78.70;9.43;;;8.70;76.50;;;;;;6206785;23;20039;-59
2022/02/07 14:57:46;;;;;;;75.78;8.98;;;8.70;76.30;;;;;;6207624;23;20008;-63
2022/02/07 15:00:14;;;;;;;91.95;9.05;;;8.60;76.20;;;;;;6198599;23;20501;-63
2022/02/07 15:02:40;;;;;;;93.68;11.07;;;8.60;76.40;;;;;;6165674;23;20015;-61
2022/02/07 15:05:06;;;;;;;81.55;9.25;;;8.60;76.60;;;;;;6165255;23;20008;-62
2022/02/07 15:07:31;;;;;;;72.25;9.23;;;8.70;76.40;;;;;;6163515;23;20352;-63
2022/02/07 15:09:57;;;;;;;102.32;9.02;;;8.70;76.00;;;;;;6190559;23;20030;-61
2022/02/07 15:12:23;;;;;;;55.47;8.05;;;8.60;76.00;;;;;;6218318;23;20354;-59
2022/02/07 15:14:51;;;;;;;51.65;6.82;;;8.60;75.90;;;;;;6191339;23;20011;-62
2022/02/07 15:17:17;;;;;;;53.28;8.20;;;8.60;75.10;;;;;;6217915;23;20815;-62
2022/02/07 15:19:43;;;;;;;63.42;8.43;;;8.70;75.00;;;;;;6216875;23;20618;-62
2022/02/07 15:22:08;;;;;;;71.80;9.95;;;8.60;75.20;;;;;;6190860;23;20645;-63
2022/02/07 15:24:35;;;;;;;62.65;8.82;;;8.70;75.50;;;;;;6190136;23;20596;-62
2022/02/07 15:27:01;;;;;;;73.22;7.97;;;8.70;75.60;;;;;;6191248;23;20409;-62
2022/02/07 15:29:27;;;;;;;72.20;8.05;;;8.70;75.50;;;;;;6217586;23;20043;-60
2022/02/07 15:32:09;;;;;;;69.35;8.68;;;8.70;75.50;;;;;;6178247;23;20319;-59
2022/02/07 15:34:34;;;;;;;67.53;7.78;;;8.60;75.30;;;;;;6210878;23;20056;-62